Time;durP1;ratioP1;P1;durP2;ratioP2;P2;SDS_P1;SDS_P2;PMS_P1;PMS_P2;Temp;Humidity;BMP_temperature;BMP_pressure;BME280_temperature;BME280_humidity;BME280_pressure;Samples;Min_cycle;Max_cycle;Signal;HPM_P1;HPM_P2
2023/01/10 00:01:08;;;;;;;5.25;1.42;;;5.90;99.90;;;;;;5110080;28;20510;-57
2023/01/10 00:03:33;;;;;;;2.90;1.50;;;5.90;99.90;;;;;;5088817;28;20468;-56
2023/01/10 00:05:59;;;;;;;1.67;1.50;;;5.90;99.90;;;;;;5103610;28;20035;-50
2023/01/10 00:08:24;;;;;;;2.70;1.63;;;5.90;99.90;;;;;;5088844;28;20081;-52
2023/01/10 00:10:50;;;;;;;1.83;1.38;;;6.00;99.90;;;;;;5109667;28;20605;-55
2023/01/10 00:13:22;;;;;;;2.72;1.73;;;6.00;99.90;;;;;;5098800;28;20080;-55
2023/01/10 00:15:49;;;;;;;1.45;1.13;;;6.00;99.90;;;;;;5069886;28;20028;-54
2023/01/10 00:18:15;;;;;;;2.70;1.60;;;6.10;99.90;;;;;;5107362;28;20047;-53
2023/01/10 00:20:43;;;;;;;2.30;1.60;;;6.00;99.90;;;;;;5090498;28;20097;-55
2023/01/10 00:23:08;;;;;;;3.78;1.70;;;6.10;99.90;;;;;;5108016;28;20076;-56
2023/01/10 00:25:35;;;;;;;2.33;1.48;;;6.10;99.90;;;;;;5090219;28;20426;-52
2023/01/10 00:28:09;;;;;;;2.72;1.60;;;6.10;99.90;;;;;;5107439;28;20036;-50
2023/01/10 00:30:38;;;;;;;2.40;1.67;;;6.10;99.90;;;;;;5069480;28;20029;-54
2023/01/10 00:33:04;;;;;;;3.00;1.80;;;6.00;99.90;;;;;;5107799;28;20350;-52
2023/01/10 00:35:29;;;;;;;2.13;1.52;;;6.00;99.90;;;;;;5090220;28;20543;-55
2023/01/10 00:38:00;;;;;;;3.33;1.60;;;5.90;99.90;;;;;;5088234;28;20058;-54
2023/01/10 00:40:25;;;;;;;2.38;1.77;;;5.90;99.90;;;;;;5069593;28;20025;-56
2023/01/10 00:45:35;;;;;;;2.35;1.40;;;5.90;99.90;;;;;;5069335;28;20043;-55
2023/01/10 00:48:01;;;;;;;2.78;2.20;;;6.00;99.90;;;;;;5087444;28;20036;-53
2023/01/10 00:50:26;;;;;;;2.97;2.08;;;6.00;99.90;;;;;;5109211;28;20024;-55
2023/01/10 00:52:52;;;;;;;2.45;1.90;;;6.00;99.90;;;;;;5088137;28;20613;-54
2023/01/10 00:55:17;;;;;;;4.10;2.58;;;6.10;99.90;;;;;;5109078;28;20026;-51
2023/01/10 00:57:43;;;;;;;4.28;1.80;;;6.10;99.90;;;;;;5088178;28;20104;-53
2023/01/10 01:00:10;;;;;;;3.67;2.10;;;6.10;99.90;;;;;;5109144;28;20187;-52
2023/01/10 01:02:36;;;;;;;3.08;1.85;;;6.10;99.90;;;;;;5087827;28;20057;-57
2023/01/10 01:05:02;;;;;;;4.68;2.13;;;6.10;99.90;;;;;;5096634;28;20120;-50
2023/01/10 01:07:27;;;;;;;2.15;1.63;;;6.20;99.90;;;;;;5087345;28;20050;-55
2023/01/10 01:12:37;;;;;;;6.20;2.35;;;6.20;99.90;;;;;;5083864;28;20057;-55
2023/01/10 01:15:03;;;;;;;2.22;1.75;;;6.20;99.90;;;;;;5108895;28;20130;-54
2023/01/10 01:17:28;;;;;;;4.07;2.30;;;6.30;99.90;;;;;;5087923;28;20047;-54
2023/01/10 01:19:54;;;;;;;4.40;2.45;;;6.30;99.90;;;;;;5108571;28;20035;-55
2023/01/10 01:22:19;;;;;;;3.75;2.10;;;6.30;99.90;;;;;;5087854;28;20024;-53
2023/01/10 01:24:45;;;;;;;5.45;2.65;;;6.30;99.90;;;;;;5108563;28;20055;-55
2023/01/10 01:27:10;;;;;;;3.30;2.35;;;6.30;99.90;;;;;;5089374;28;20086;-56
2023/01/10 01:29:35;;;;;;;5.38;2.53;;;6.40;99.90;;;;;;5109200;28;20476;-56
2023/01/10 01:32:01;;;;;;;2.90;2.20;;;6.40;99.90;;;;;;5087778;28;20040;-54
2023/01/10 01:34:27;;;;;;;3.78;2.65;;;6.40;99.90;;;;;;5108636;28;20042;-53
2023/01/10 01:36:55;;;;;;;6.72;3.22;;;6.40;99.90;;;;;;5097930;28;20491;-55
2023/01/10 01:39:21;;;;;;;4.60;2.42;;;6.40;99.90;;;;;;5089124;28;20476;-49
2023/01/10 01:41:55;;;;;;;5.47;2.75;;;6.40;99.90;;;;;;5106550;28;20042;-55
2023/01/10 01:44:21;;;;;;;5.45;2.22;;;6.40;99.90;;;;;;5068629;28;20047;-54
2023/01/10 01:47:01;;;;;;;3.58;2.10;;;6.50;99.90;;;;;;5105959;28;20576;-56
2023/01/10 01:49:29;;;;;;;3.95;2.28;;;6.50;99.90;;;;;;5068571;28;20032;-52
2023/01/10 01:52:05;;;;;;;4.60;2.75;;;6.50;99.90;;;;;;5106529;28;20016;-56
2023/01/10 01:54:33;;;;;;;3.55;2.72;;;6.50;99.90;;;;;;5068424;28;20603;-51
2023/01/10 02:00:20;;;;;;;5.47;2.75;;;6.50;99.90;;;;;;5085353;28;20038;-53
2023/01/10 02:02:50;;;;;;;3.40;2.63;;;6.50;99.90;;;;;;5089087;28;20032;-53
2023/01/10 02:05:17;;;;;;;6.78;2.80;;;6.50;99.90;;;;;;5100544;28;20059;-54
2023/01/10 02:07:48;;;;;;;3.35;2.65;;;6.50;99.90;;;;;;5088779;28;20390;-55
2023/01/10 02:10:43;;;;;;;4.55;3.00;;;6.60;99.90;;;;;;5083056;28;20291;-54
2023/01/10 02:13:11;;;;;;;4.70;3.05;;;6.60;99.90;;;;;;5068252;28;20040;-52
2023/01/10 02:15:36;;;;;;;4.88;2.88;;;6.60;99.90;;;;;;5094923;28;20480;-54
2023/01/10 02:18:03;;;;;;;5.22;3.28;;;6.60;99.90;;;;;;5108097;28;20034;-56
2023/01/10 02:20:35;;;;;;;5.07;3.38;;;6.60;99.90;;;;;;5097456;28;20173;-55
2023/01/10 02:23:45;;;;;;;7.13;3.90;;;6.60;99.90;;;;;;5068288;28;20056;-56
2023/01/10 02:26:29;;;;;;;5.93;3.35;;;6.60;99.90;;;;;;5073390;28;20039;-53
2023/01/10 02:32:26;;;;;;;5.47;3.70;;;6.70;99.90;;;;;;5096716;28;20289;-52
2023/01/10 02:35:13;;;;;;;4.72;3.00;;;6.70;99.90;;;;;;5068113;28;20060;-55
2023/01/10 02:38:01;;;;;;;8.90;4.47;;;6.70;99.90;;;;;;5083604;28;20200;-57
2023/01/10 02:40:46;;;;;;;5.10;3.50;;;6.70;99.90;;;;;;5071831;28;20024;-57
2023/01/10 02:43:17;;;;;;;6.85;4.00;;;6.70;99.90;;;;;;5071560;28;20024;-56
2023/01/10 02:45:51;;;;;;;7.97;3.92;;;6.70;99.90;;;;;;5071980;28;20039;-56
2023/01/10 02:48:17;;;;;;;5.47;3.85;;;6.70;99.90;;;;;;5091850;28;20032;-52
2023/01/10 02:50:43;;;;;;;4.82;3.58;;;6.70;99.90;;;;;;5107501;28;20039;-56
2023/01/10 02:53:21;;;;;;;5.10;3.70;;;6.70;99.90;;;;;;5091807;28;20088;-54
2023/01/10 02:56:47;;;;;;;9.98;4.43;;;6.70;99.90;;;;;;5072366;28;20033;-58
2023/01/10 02:59:49;;;;;;;4.90;3.58;;;6.60;99.90;;;;;;5008855;28;20032;-53
2023/01/10 03:02:36;;;;;;;8.93;3.95;;;6.60;99.90;;;;;;5084552;28;20404;-55
2023/01/10 03:05:12;;;;;;;6.90;3.50;;;6.60;99.90;;;;;;5076501;28;20047;-53
2023/01/10 03:08:00;;;;;;;4.82;3.10;;;6.60;99.90;;;;;;5091707;28;20551;-55
2023/01/10 03:10:49;;;;;;;6.72;4.03;;;6.60;99.90;;;;;;5071259;28;20115;-53
2023/01/10 03:13:20;;;;;;;5.35;3.50;;;6.50;99.90;;;;;;5071163;28;20051;-52
2023/01/10 03:15:48;;;;;;;6.05;4.00;;;6.40;99.90;;;;;;5071941;28;20028;-55
2023/01/10 03:18:18;;;;;;;8.80;3.90;;;6.40;99.90;;;;;;5091113;28;20031;-55
2023/01/10 03:20:46;;;;;;;5.68;3.33;;;6.40;99.90;;;;;;5071407;28;20024;-54
2023/01/10 03:23:14;;;;;;;7.57;4.13;;;6.40;99.90;;;;;;5091133;28;20024;-53
2023/01/10 03:25:41;;;;;;;7.15;3.97;;;6.50;99.90;;;;;;5107614;28;20495;-54
2023/01/10 03:28:41;;;;;;;7.75;4.30;;;6.50;99.90;;;;;;5100724;28;20134;-56
2023/01/10 03:31:30;;;;;;;6.68;4.07;;;6.50;99.90;;;;;;5074440;28;20032;-56
2023/01/10 03:33:55;;;;;;;8.15;4.03;;;6.50;99.90;;;;;;5070967;28;20028;-55
2023/01/10 03:36:30;;;;;;;10.65;4.32;;;6.50;99.90;;;;;;5100664;28;20380;-52
2023/01/10 03:39:06;;;;;;;7.80;4.28;;;6.50;99.90;;;;;;5091102;28;20031;-53
2023/01/10 03:41:38;;;;;;;6.28;3.80;;;6.60;99.90;;;;;;5077576;28;20153;-51
2023/01/10 03:47:09;;;;;;;6.25;3.92;;;6.60;99.90;;;;;;5082500;28;20054;-53
2023/01/10 03:49:38;;;;;;;5.07;3.70;;;6.60;99.90;;;;;;5110517;28;20038;-55
2023/01/10 03:52:07;;;;;;;6.20;3.50;;;6.60;99.90;;;;;;5088979;28;20035;-56
2023/01/10 03:54:32;;;;;;;5.25;3.60;;;6.60;99.90;;;;;;5110450;28;20047;-55
2023/01/10 03:56:58;;;;;;;6.93;3.47;;;6.60;99.90;;;;;;5089314;28;20420;-55
2023/01/10 03:59:28;;;;;;;5.88;3.97;;;6.50;99.90;;;;;;5110157;28;20031;-53
2023/01/10 04:01:54;;;;;;;7.43;3.70;;;6.50;99.90;;;;;;5088816;28;20031;-55
2023/01/10 04:04:20;;;;;;;6.32;3.38;;;6.50;99.90;;;;;;5110327;28;20078;-56
2023/01/10 04:06:46;;;;;;;7.43;3.17;;;6.40;99.90;;;;;;5075790;28;20028;-52
2023/01/10 04:09:12;;;;;;;7.30;3.45;;;6.40;99.90;;;;;;5109799;28;20095;-56
2023/01/10 04:11:37;;;;;;;5.85;3.33;;;6.40;99.90;;;;;;5088898;28;20020;-54
2023/01/10 04:14:03;;;;;;;4.90;3.00;;;6.30;99.90;;;;;;5109880;28;20538;-54
2023/01/10 04:16:28;;;;;;;7.07;3.38;;;6.30;99.90;;;;;;5088727;28;20016;-56
2023/01/10 04:18:54;;;;;;;5.97;3.35;;;6.30;99.90;;;;;;5109745;28;20545;-54
2023/01/10 04:21:19;;;;;;;7.47;3.78;;;6.30;99.90;;;;;;5088738;28;20055;-53
2023/01/10 04:23:45;;;;;;;7.13;3.58;;;6.40;99.90;;;;;;5090163;28;20353;-53
2023/01/10 04:26:11;;;;;;;4.40;2.75;;;6.40;99.90;;;;;;5101600;28;20028;-57
2023/01/10 04:28:36;;;;;;;4.93;2.53;;;6.40;99.90;;;;;;5089732;28;20484;-54
2023/01/10 04:31:02;;;;;;;6.75;3.60;;;6.40;99.90;;;;;;5102946;28;20563;-51
2023/01/10 04:33:27;;;;;;;3.47;2.60;;;6.50;99.90;;;;;;5089921;28;20024;-55
2023/01/10 04:35:53;;;;;;;11.40;3.75;;;6.50;99.90;;;;;;5103887;28;20055;-53
2023/01/10 04:38:19;;;;;;;7.70;4.07;;;6.50;99.90;;;;;;5089831;28;20382;-53
2023/01/10 04:40:52;;;;;;;5.90;3.25;;;6.50;99.90;;;;;;5107424;28;20036;-52
2023/01/10 04:43:17;;;;;;;5.40;3.45;;;6.60;99.90;;;;;;5109982;28;20047;-54
2023/01/10 04:45:43;;;;;;;6.97;3.55;;;6.60;99.90;;;;;;5090096;28;20067;-55
2023/01/10 04:48:08;;;;;;;8.48;3.97;;;6.60;99.90;;;;;;5109826;28;20028;-54
2023/01/10 04:50:33;;;;;;;6.95;3.83;;;6.60;99.90;;;;;;5088617;28;20055;-54
2023/01/10 04:52:59;;;;;;;5.97;3.63;;;6.60;99.90;;;;;;5109848;28;20027;-56
2023/01/10 04:55:24;;;;;;;5.63;3.00;;;6.60;99.90;;;;;;5089896;28;20111;-56
2023/01/10 04:57:50;;;;;;;6.55;3.63;;;6.70;99.90;;;;;;5106797;28;20024;-53
2023/01/10 05:00:16;;;;;;;10.10;4.03;;;6.60;99.90;;;;;;5089796;28;20380;-51
2023/01/10 05:02:42;;;;;;;10.82;4.32;;;6.70;99.90;;;;;;5088420;28;20032;-55
2023/01/10 05:05:12;;;;;;;7.13;4.20;;;6.60;99.90;;;;;;5096786;28;20089;-56
2023/01/10 05:07:38;;;;;;;5.85;3.42;;;6.60;99.90;;;;;;5092239;28;20036;-56
2023/01/10 05:10:05;;;;;;;7.05;3.38;;;6.60;99.90;;;;;;5109180;28;20114;-52
2023/01/10 05:12:31;;;;;;;8.60;3.03;;;6.60;99.90;;;;;;5087529;28;20032;-56
2023/01/10 05:14:56;;;;;;;10.30;4.43;;;6.60;99.90;;;;;;5108993;28;20395;-57
2023/01/10 05:17:22;;;;;;;6.80;3.70;;;6.60;99.90;;;;;;5087961;28;20055;-57
2023/01/10 05:19:47;;;;;;;12.13;4.38;;;6.70;99.90;;;;;;5108836;28;20032;-54
2023/01/10 05:22:13;;;;;;;6.20;3.67;;;6.60;99.90;;;;;;5087789;28;20039;-54
2023/01/10 05:24:38;;;;;;;9.30;3.95;;;6.70;99.90;;;;;;5089320;28;20030;-54
2023/01/10 05:27:04;;;;;;;6.85;3.55;;;6.70;99.90;;;;;;5106634;28;20103;-56
2023/01/10 05:29:29;;;;;;;8.40;4.00;;;6.70;99.90;;;;;;5109248;28;20535;-57
2023/01/10 05:31:55;;;;;;;7.97;4.30;;;6.70;99.90;;;;;;5087726;28;20028;-54
2023/01/10 05:34:20;;;;;;;12.50;3.90;;;6.60;99.90;;;;;;5089237;28;20103;-55
2023/01/10 05:36:46;;;;;;;9.82;4.18;;;6.60;99.90;;;;;;5103938;28;20032;-56
2023/01/10 05:39:12;;;;;;;12.20;4.65;;;6.60;99.90;;;;;;5089011;28;20384;-54
2023/01/10 05:41:39;;;;;;;14.18;4.85;;;6.60;99.90;;;;;;5105117;28;20034;-52
2023/01/10 05:44:04;;;;;;;14.82;4.90;;;6.60;99.90;;;;;;5089264;28;20099;-56
2023/01/10 05:46:30;;;;;;;8.75;4.40;;;6.60;99.90;;;;;;5105898;28;20115;-54
2023/01/10 05:48:55;;;;;;;10.57;4.22;;;6.60;99.90;;;;;;5089036;28;20024;-53
2023/01/10 05:51:21;;;;;;;7.93;3.58;;;6.70;99.90;;;;;;5108575;28;20130;-51
2023/01/10 05:53:46;;;;;;;7.20;3.97;;;6.70;99.90;;;;;;5073589;28;20021;-53
2023/01/10 05:56:12;;;;;;;9.40;4.32;;;6.70;99.90;;;;;;5088291;28;20031;-55
2023/01/10 05:58:37;;;;;;;10.63;4.70;;;6.70;99.90;;;;;;5086866;28;20036;-55
2023/01/10 06:01:03;;;;;;;11.93;4.47;;;6.80;99.90;;;;;;5086099;28;20404;-51
2023/01/10 06:03:28;;;;;;;9.70;3.92;;;6.80;99.90;;;;;;5104742;28;20220;-54
2023/01/10 06:05:55;;;;;;;8.38;5.10;;;6.80;99.90;;;;;;5094568;28;20027;-50
2023/01/10 06:08:21;;;;;;;10.90;4.90;;;6.80;99.90;;;;;;5087391;28;20530;-51
2023/01/10 06:10:46;;;;;;;8.60;4.95;;;6.80;99.90;;;;;;5089130;28;20032;-52
2023/01/10 06:13:12;;;;;;;11.30;5.15;;;6.90;99.90;;;;;;5111668;28;20157;-56
2023/01/10 06:15:37;;;;;;;12.13;5.22;;;6.80;99.90;;;;;;5091607;28;20036;-54
2023/01/10 06:18:03;;;;;;;13.07;4.80;;;6.90;99.90;;;;;;5112421;28;20563;-56
2023/01/10 06:20:29;;;;;;;11.85;5.18;;;6.90;99.90;;;;;;5091073;28;20036;-57
2023/01/10 06:22:54;;;;;;;13.25;5.18;;;6.90;99.90;;;;;;5111997;28;20030;-57
2023/01/10 06:25:20;;;;;;;12.07;5.30;;;6.90;99.90;;;;;;5090965;28;20024;-54
2023/01/10 06:27:45;;;;;;;10.38;4.95;;;6.90;99.90;;;;;;5104519;28;20039;-57
2023/01/10 06:30:12;;;;;;;13.05;5.03;;;6.90;99.90;;;;;;5106263;28;20063;-56
2023/01/10 06:32:39;;;;;;;13.95;5.82;;;6.90;99.90;;;;;;5092356;28;20103;-55
2023/01/10 06:35:05;;;;;;;11.15;5.00;;;7.00;99.90;;;;;;5095024;28;20047;-52
2023/01/10 06:37:31;;;;;;;10.68;4.63;;;7.00;99.90;;;;;;5093735;28;20044;-55
2023/01/10 06:39:56;;;;;;;20.33;5.43;;;7.00;99.90;;;;;;5111764;28;20036;-53
2023/01/10 06:42:22;;;;;;;6.07;4.32;;;7.00;99.90;;;;;;5090724;28;20032;-51
2023/01/10 06:44:47;;;;;;;13.32;4.72;;;7.00;99.90;;;;;;5111466;28;20114;-54
2023/01/10 06:47:13;;;;;;;7.60;4.40;;;7.00;99.90;;;;;;5087271;28;20474;-53
2023/01/10 06:49:38;;;;;;;13.30;4.75;;;7.00;99.90;;;;;;5089853;28;20040;-56
2023/01/10 06:52:04;;;;;;;12.70;4.95;;;7.00;99.90;;;;;;5088691;28;20028;-54
2023/01/10 06:54:29;;;;;;;12.63;6.20;;;7.00;99.90;;;;;;5110225;28;20040;-50
2023/01/10 06:56:55;;;;;;;14.40;5.47;;;6.90;99.90;;;;;;5089330;28;20027;-55
2023/01/10 06:59:20;;;;;;;15.63;5.35;;;6.90;99.90;;;;;;5107785;28;20624;-54
2023/01/10 07:01:46;;;;;;;13.52;5.63;;;6.90;99.90;;;;;;5095230;28;20035;-52
2023/01/10 07:04:11;;;;;;;14.27;5.43;;;6.90;99.90;;;;;;5070311;28;20081;-51
2023/01/10 07:06:38;;;;;;;8.93;5.18;;;6.90;99.90;;;;;;5103255;28;20634;-53
2023/01/10 07:09:05;;;;;;;16.08;5.22;;;6.90;99.90;;;;;;5089247;28;20036;-56
2023/01/10 07:11:31;;;;;;;9.25;5.20;;;7.00;99.90;;;;;;5110187;28;20042;-54
2023/01/10 07:13:56;;;;;;;13.38;5.25;;;7.00;99.90;;;;;;5088544;28;20400;-52
2023/01/10 07:16:22;;;;;;;17.45;6.55;;;7.00;99.90;;;;;;5110010;28;20718;-55
2023/01/10 07:18:47;;;;;;;13.45;5.70;;;7.00;99.90;;;;;;5088698;28;20161;-57
2023/01/10 07:21:14;;;;;;;11.02;4.93;;;7.10;99.90;;;;;;5109387;28;20036;-54
2023/01/10 07:23:40;;;;;;;13.30;5.07;;;7.00;99.90;;;;;;5088886;28;20031;-55
2023/01/10 07:26:08;;;;;;;10.90;4.80;;;7.00;99.90;;;;;;5109722;28;20031;-53
2023/01/10 07:28:34;;;;;;;15.82;5.75;;;7.10;99.90;;;;;;5088000;28;20115;-55
2023/01/10 07:31:01;;;;;;;13.65;4.95;;;7.10;99.90;;;;;;5109246;28;20142;-52
2023/01/10 07:33:27;;;;;;;11.85;4.55;;;7.10;99.90;;;;;;5088674;28;20716;-56
2023/01/10 07:35:53;;;;;;;8.65;4.53;;;7.10;99.90;;;;;;5109696;28;20047;-53
2023/01/10 07:38:18;;;;;;;15.45;4.70;;;7.20;99.90;;;;;;5087409;28;20123;-51
2023/01/10 07:40:44;;;;;;;9.90;4.75;;;7.20;99.90;;;;;;5102699;28;20084;-56
2023/01/10 07:43:09;;;;;;;11.60;4.95;;;7.20;99.90;;;;;;5109297;28;20035;-52
2023/01/10 07:45:35;;;;;;;16.17;4.47;;;7.20;99.90;;;;;;5088455;28;20055;-57
2023/01/10 07:48:02;;;;;;;16.27;4.97;;;7.20;99.90;;;;;;5109431;28;20047;-56
2023/01/10 07:50:32;;;;;;;11.23;5.03;;;7.20;99.90;;;;;;5096875;28;20102;-55
2023/01/10 07:52:58;;;;;;;13.38;4.75;;;7.20;99.90;;;;;;5090558;28;20047;-55
2023/01/10 07:55:24;;;;;;;11.55;5.32;;;7.30;99.90;;;;;;5093336;28;20049;-56
2023/01/10 07:57:50;;;;;;;14.55;5.65;;;7.20;99.90;;;;;;5108663;28;20503;-56
2023/01/10 08:00:17;;;;;;;14.82;5.40;;;7.30;99.90;;;;;;5088848;28;20077;-56
2023/01/10 08:02:42;;;;;;;10.50;4.78;;;7.30;99.90;;;;;;5110170;28;20023;-54
2023/01/10 08:05:08;;;;;;;12.52;5.00;;;7.30;99.90;;;;;;5094944;28;20028;-55
2023/01/10 08:07:34;;;;;;;15.00;5.40;;;7.30;99.90;;;;;;5110507;28;20035;-56
2023/01/10 08:09:59;;;;;;;13.82;5.70;;;7.40;99.90;;;;;;5088914;27;20582;-55
2023/01/10 08:12:25;;;;;;;13.63;5.07;;;7.40;99.90;;;;;;5109650;28;20123;-53
2023/01/10 08:14:51;;;;;;;13.35;5.15;;;7.40;99.90;;;;;;5087427;28;20036;-56
2023/01/10 08:17:17;;;;;;;9.32;4.65;;;7.40;99.90;;;;;;5109689;28;20081;-56
2023/01/10 08:19:43;;;;;;;14.82;6.00;;;7.50;99.90;;;;;;5088503;28;20032;-56
2023/01/10 08:22:08;;;;;;;11.60;5.82;;;7.50;99.90;;;;;;5109654;28;20055;-55
2023/01/10 08:24:34;;;;;;;11.43;5.30;;;7.50;99.90;;;;;;5088751;28;20024;-53
2023/01/10 08:27:00;;;;;;;13.05;5.03;;;7.50;99.90;;;;;;5108832;28;20027;-55
2023/01/10 08:29:26;;;;;;;8.50;5.18;;;7.50;99.90;;;;;;5087764;28;20114;-56
2023/01/10 08:31:52;;;;;;;12.00;5.15;;;7.60;99.90;;;;;;5089888;28;20096;-55
2023/01/10 08:34:17;;;;;;;9.60;5.65;;;7.60;99.90;;;;;;5100939;28;20447;-52
2023/01/10 08:36:43;;;;;;;11.25;5.20;;;7.70;99.90;;;;;;5089549;28;20035;-54
2023/01/10 08:39:08;;;;;;;10.18;5.30;;;7.70;99.90;;;;;;5102627;28;20023;-51
2023/01/10 08:41:34;;;;;;;11.88;5.35;;;7.70;99.90;;;;;;5089584;28;20038;-56
2023/01/10 08:43:59;;;;;;;10.13;4.85;;;7.70;99.90;;;;;;5104073;28;20047;-51
2023/01/10 08:46:25;;;;;;;9.88;4.80;;;7.70;99.90;;;;;;5089565;28;20027;-56
2023/01/10 08:48:51;;;;;;;14.25;5.20;;;7.70;99.90;;;;;;5104885;28;20403;-55
2023/01/10 08:51:17;;;;;;;11.82;4.65;;;7.80;99.90;;;;;;5089447;28;20027;-52
2023/01/10 08:53:43;;;;;;;12.85;4.72;;;7.90;99.90;;;;;;5106244;28;20047;-54
2023/01/10 08:56:08;;;;;;;8.30;5.15;;;7.90;99.90;;;;;;5089445;28;20038;-55
2023/01/10 08:58:34;;;;;;;15.10;5.30;;;8.00;99.90;;;;;;5088083;28;20377;-55
2023/01/10 09:01:04;;;;;;;11.40;5.20;;;8.00;99.90;;;;;;5089358;28;20082;-53
2023/01/10 09:03:29;;;;;;;12.05;5.13;;;8.00;99.90;;;;;;5100943;28;20050;-51
2023/01/10 09:05:57;;;;;;;13.68;5.45;;;8.00;99.90;;;;;;5094966;28;20039;-53
2023/01/10 09:08:22;;;;;;;9.85;5.03;;;8.00;99.90;;;;;;5087677;27;20042;-55
2023/01/10 09:10:48;;;;;;;11.65;5.40;;;8.00;99.90;;;;;;5088024;28;20380;-53
2023/01/10 09:13:13;;;;;;;10.90;5.20;;;8.00;99.90;;;;;;5102458;28;20514;-53
2023/01/10 09:15:41;;;;;;;12.88;5.63;;;8.00;99.90;;;;;;5089267;28;20455;-54
2023/01/10 09:18:08;;;;;;;15.88;5.88;;;8.00;99.90;;;;;;5102618;28;20115;-56
2023/01/10 09:20:36;;;;;;;12.73;6.00;;;8.00;99.90;;;;;;5089326;28;20028;-52
2023/01/10 09:23:18;;;;;;;10.73;4.65;;;8.00;99.90;;;;;;5103079;28;20122;-53
2023/01/10 09:25:45;;;;;;;8.57;5.00;;;8.00;99.90;;;;;;5089047;28;20020;-56
2023/01/10 09:28:11;;;;;;;10.45;4.88;;;8.10;99.90;;;;;;5096275;28;20090;-53
2023/01/10 09:30:36;;;;;;;13.52;5.32;;;8.10;99.90;;;;;;5089386;28;20031;-52
2023/01/10 09:33:02;;;;;;;13.95;5.70;;;8.20;99.90;;;;;;5101817;28;20091;-51
2023/01/10 09:35:29;;;;;;;15.00;6.05;;;8.30;99.90;;;;;;5107289;28;20552;-51
2023/01/10 09:37:57;;;;;;;11.43;4.53;;;8.30;99.90;;;;;;5089644;28;20036;-56
2023/01/10 09:40:54;;;;;;;13.10;5.65;;;8.30;99.90;;;;;;5107656;28;20602;-50
2023/01/10 09:43:49;;;;;;;9.95;5.50;;;8.30;99.90;;;;;;5081890;28;20078;-54
2023/01/10 09:46:27;;;;;;;10.68;4.55;;;8.40;99.90;;;;;;5072454;28;20128;-51
2023/01/10 09:49:14;;;;;;;13.80;4.95;;;8.40;99.90;;;;;;5091702;28;20028;-49
2023/01/10 09:51:42;;;;;;;12.10;4.60;;;8.40;99.90;;;;;;5075639;28;20081;-50
2023/01/10 09:54:16;;;;;;;12.60;5.28;;;8.60;99.90;;;;;;5091768;28;20027;-50
2023/01/10 09:56:43;;;;;;;13.38;5.55;;;8.80;99.90;;;;;;5075802;28;20051;-47
2023/01/10 09:59:15;;;;;;;11.50;4.80;;;8.90;99.90;;;;;;5091849;28;20480;-50
2023/01/10 10:01:41;;;;;;;12.40;5.32;;;9.10;99.90;;;;;;5075442;28;20012;-49
2023/01/10 10:04:27;;;;;;;7.50;4.55;;;9.20;99.90;;;;;;5091587;28;20491;-51
2023/01/10 10:06:52;;;;;;;9.70;4.45;;;9.20;99.90;;;;;;5071325;28;20566;-51
2023/01/10 10:09:23;;;;;;;13.77;4.70;;;9.20;99.90;;;;;;5091554;28;20028;-51
2023/01/10 10:12:02;;;;;;;9.15;5.18;;;9.20;99.90;;;;;;5076511;28;20031;-53
2023/01/10 10:15:02;;;;;;;11.45;4.68;;;9.20;99.90;;;;;;5091237;28;20035;-49
2023/01/10 10:18:05;;;;;;;10.02;3.90;;;9.20;99.90;;;;;;5081965;28;20034;-51
2023/01/10 10:20:39;;;;;;;10.95;4.50;;;9.20;99.90;;;;;;5082276;28;20130;-52
2023/01/10 10:23:32;;;;;;;10.82;4.20;;;9.20;99.90;;;;;;5077322;28;20031;-48
2023/01/10 10:26:17;;;;;;;9.82;4.18;;;9.10;99.90;;;;;;5108021;28;20446;-50
2023/01/10 10:28:50;;;;;;;13.57;3.67;;;9.10;99.90;;;;;;5070605;28;20618;-51
2023/01/10 10:31:49;;;;;;;7.80;4.03;;;9.10;99.90;;;;;;5072734;28;20492;-52
2023/01/10 10:34:26;;;;;;;12.88;4.85;;;9.10;99.90;;;;;;5111404;28;20027;-55
2023/01/10 10:36:54;;;;;;;8.48;3.88;;;9.20;99.90;;;;;;5089527;28;20487;-51
2023/01/10 10:39:26;;;;;;;6.47;3.75;;;9.30;99.90;;;;;;5097146;28;20027;-55
2023/01/10 10:41:53;;;;;;;7.88;3.80;;;9.20;99.90;;;;;;5070564;28;20024;-55
2023/01/10 10:44:55;;;;;;;9.70;4.30;;;9.30;99.90;;;;;;5108227;28;20098;-50
2023/01/10 10:47:26;;;;;;;7.78;3.35;;;9.30;99.90;;;;;;5069332;28;20784;-52
2023/01/10 10:50:14;;;;;;;7.72;3.83;;;9.30;99.90;;;;;;5080844;28;20063;-54
2023/01/10 10:52:43;;;;;;;8.57;3.90;;;9.40;99.90;;;;;;5070564;28;20112;-53
2023/01/10 10:55:15;;;;;;;8.18;3.20;;;9.30;99.90;;;;;;5093801;28;20020;-53
2023/01/10 10:57:41;;;;;;;8.95;3.40;;;9.30;99.90;;;;;;5110126;28;20524;-50
2023/01/10 11:00:12;;;;;;;9.55;3.63;;;9.30;99.90;;;;;;5089010;28;20107;-53
2023/01/10 11:02:44;;;;;;;6.63;3.40;;;9.30;99.90;;;;;;5069988;28;20047;-52
2023/01/10 11:05:34;;;;;;;8.73;3.65;;;9.30;99.90;;;;;;5085653;28;20038;-51
2023/01/10 11:08:12;;;;;;;6.28;3.10;;;9.30;99.90;;;;;;5110715;28;20027;-51
2023/01/10 11:10:41;;;;;;;9.20;3.60;;;9.20;99.90;;;;;;5087343;28;20032;-55
2023/01/10 11:13:19;;;;;;;9.90;2.97;;;9.20;99.90;;;;;;5110376;28;20024;-53
2023/01/10 11:15:47;;;;;;;4.65;2.72;;;9.30;99.90;;;;;;5088131;28;20555;-53
2023/01/10 11:18:17;;;;;;;7.53;3.50;;;9.30;99.90;;;;;;5110155;28;20039;-53
2023/01/10 11:21:05;;;;;;;8.77;3.28;;;9.30;99.90;;;;;;5087347;28;20036;-52
2023/01/10 11:23:39;;;;;;;7.15;3.05;;;9.30;99.90;;;;;;5070024;28;20508;-53
2023/01/10 11:26:27;;;;;;;10.57;3.25;;;9.30;99.90;;;;;;5110136;28;20023;-53
2023/01/10 11:29:05;;;;;;;8.45;3.33;;;9.30;99.90;;;;;;5099368;28;20051;-53
2023/01/10 11:31:32;;;;;;;9.65;3.42;;;9.30;99.90;;;;;;5109477;28;20031;-55
2023/01/10 11:33:58;;;;;;;8.88;3.08;;;9.40;99.90;;;;;;5091734;28;20481;-56
2023/01/10 11:36:23;;;;;;;9.52;3.05;;;9.50;99.90;;;;;;5111223;28;20015;-53
2023/01/10 11:39:03;;;;;;;7.68;3.05;;;9.60;99.90;;;;;;5090900;28;20039;-55
2023/01/10 11:41:33;;;;;;;9.02;3.15;;;9.60;99.90;;;;;;5111093;28;20027;-56
2023/01/10 11:44:22;;;;;;;8.02;2.80;;;9.60;99.90;;;;;;5074331;28;20038;-52
2023/01/10 11:46:51;;;;;;;9.80;3.17;;;9.50;99.90;;;;;;5111047;28;20107;-55
2023/01/10 11:49:42;;;;;;;9.60;2.78;;;9.50;99.90;;;;;;5094090;27;20035;-53
2023/01/10 11:52:31;;;;;;;6.95;2.38;;;9.50;99.90;;;;;;5110468;28;20038;-50
2023/01/10 11:54:59;;;;;;;7.60;2.78;;;9.40;99.90;;;;;;5090427;28;20023;-53
2023/01/10 11:57:29;;;;;;;5.97;2.72;;;9.40;99.90;;;;;;5089141;28;20434;-50
2023/01/10 12:00:07;;;;;;;6.40;2.70;;;9.40;99.90;;;;;;5078879;28;20047;-53
2023/01/10 12:02:41;;;;;;;9.25;3.30;;;9.40;99.90;;;;;;5109268;28;20027;-53
2023/01/10 12:05:10;;;;;;;12.75;3.95;;;9.40;99.90;;;;;;5083677;28;20031;-51
2023/01/10 12:07:55;;;;;;;6.22;2.97;;;9.40;99.90;;;;;;5103742;28;20016;-53
2023/01/10 12:10:22;;;;;;;7.75;2.90;;;9.40;99.90;;;;;;5102865;28;20074;-53
2023/01/10 12:12:59;;;;;;;7.90;3.20;;;9.50;99.90;;;;;;5097478;28;20032;-53
2023/01/10 12:15:27;;;;;;;8.80;3.22;;;9.50;99.90;;;;;;5089156;28;20101;-58
2023/01/10 12:17:56;;;;;;;6.00;2.65;;;9.50;99.90;;;;;;5107107;28;20038;-55
2023/01/10 12:20:25;;;;;;;12.98;3.08;;;9.50;99.90;;;;;;5089002;28;20028;-54
2023/01/10 12:23:03;;;;;;;6.65;2.70;;;9.50;99.90;;;;;;5107185;28;20031;-50
2023/01/10 12:25:33;;;;;;;7.82;2.83;;;9.50;99.90;;;;;;5068539;28;20024;-53
2023/01/10 12:28:00;;;;;;;9.00;2.15;;;9.60;99.90;;;;;;5078607;28;20215;-52
2023/01/10 12:30:33;;;;;;;8.23;2.22;;;9.60;99.90;;;;;;5108708;28;20016;-56
2023/01/10 12:33:10;;;;;;;7.10;2.40;;;9.70;99.90;;;;;;5090568;28;20521;-50
2023/01/10 12:35:45;;;;;;;9.98;2.58;;;9.70;99.90;;;;;;5068470;28;20048;-50
2023/01/10 12:44:40;;;;;;;8.57;2.80;;;9.80;98.60;;;;;;5067998;28;20039;-50
2023/01/10 12:47:42;;;;;;;7.03;2.38;;;9.70;97.70;;;;;;5074254;28;20024;-54
2023/01/10 12:50:26;;;;;;;10.35;2.80;;;9.60;98.40;;;;;;5108906;28;20530;-50
2023/01/10 12:52:51;;;;;;;11.82;3.45;;;9.60;95.80;;;;;;5088433;28;20122;-53
2023/01/10 12:55:19;;;;;;;8.02;2.65;;;9.50;97.60;;;;;;5088671;28;20107;-52
2023/01/10 12:57:58;;;;;;;6.75;2.35;;;9.50;99.90;;;;;;5106082;28;20678;-49
2023/01/10 13:00:29;;;;;;;8.68;2.83;;;9.50;99.90;;;;;;5068269;28;20043;-51
2023/01/10 13:02:58;;;;;;;7.43;3.08;;;9.40;98.60;;;;;;5089188;28;20092;-51
2023/01/10 13:05:27;;;;;;;9.48;3.00;;;9.40;99.00;;;;;;5089557;28;20415;-51
2023/01/10 13:07:59;;;;;;;8.88;2.58;;;9.40;99.50;;;;;;5097117;28;20061;-54
2023/01/10 13:10:26;;;;;;;7.57;2.38;;;9.40;99.90;;;;;;5068012;28;20016;-50
2023/01/10 13:13:14;;;;;;;4.82;2.72;;;9.40;99.90;;;;;;5105429;28;20106;-52
2023/01/10 13:16:28;;;;;;;12.80;2.20;;;9.40;99.90;;;;;;5067733;28;20093;-50
2023/01/10 13:18:59;;;;;;;6.78;2.20;;;9.40;99.90;;;;;;5060967;28;20041;-52
2023/01/10 13:21:25;;;;;;;6.93;2.55;;;9.40;99.90;;;;;;5107884;28;20027;-53
2023/01/10 13:23:54;;;;;;;6.55;2.50;;;9.40;99.90;;;;;;5086496;28;20100;-54
2023/01/10 13:26:20;;;;;;;5.60;1.90;;;9.40;99.90;;;;;;5107786;28;20032;-54
2023/01/10 13:29:00;;;;;;;8.45;2.60;;;9.40;99.90;;;;;;5086341;28;20044;-54
2023/01/10 13:31:34;;;;;;;12.05;3.08;;;9.40;99.90;;;;;;5108022;28;20051;-51